createdAt,value
2023-11-04T00:02:23.086Z,10.77
2023-11-04T00:07:24.650Z,9.30
2023-11-04T00:12:26.345Z,9.95
2023-11-04T00:17:28.423Z,8.63
2023-11-04T00:22:31.041Z,9.90
2023-11-04T00:27:32.777Z,11.38
2023-11-04T00:32:34.338Z,9.73
2023-11-04T00:37:35.870Z,9.30
2023-11-04T00:42:38.803Z,10.00
2023-11-04T00:47:40.266Z,8.52
2023-11-04T00:52:41.771Z,10.13
2023-11-04T00:57:43.256Z,9.25
2023-11-04T01:02:44.793Z,11.30
2023-11-04T01:07:46.286Z,10.73
2023-11-04T01:12:47.805Z,10.15
2023-11-04T01:17:49.382Z,9.93
2023-11-04T01:22:51.041Z,9.57
2023-11-04T01:27:52.579Z,11.80
2023-11-04T01:32:54.111Z,9.90
2023-11-04T01:37:55.706Z,10.70
2023-11-04T01:42:57.229Z,11.02
2023-11-04T01:47:58.773Z,10.52
2023-11-04T01:53:00.393Z,11.63
2023-11-04T01:58:02.230Z,10.27
2023-11-04T02:03:04.099Z,16.45
2023-11-04T02:08:05.636Z,10.75
2023-11-04T02:13:07.272Z,11.57
2023-11-04T02:18:09.171Z,11.32
2023-11-04T02:23:10.672Z,10.73
2023-11-04T02:28:12.143Z,11.82
2023-11-04T02:33:13.618Z,11.75
2023-11-04T02:38:15.109Z,11.05
2023-11-04T02:43:16.637Z,12.85
2023-11-04T02:48:18.288Z,13.18
2023-11-04T02:53:19.884Z,15.45
2023-11-04T02:58:21.323Z,14.65
2023-11-04T03:03:22.830Z,13.13
2023-11-04T03:08:25.616Z,13.55
2023-11-04T03:13:27.058Z,14.05
2023-11-04T03:18:28.677Z,13.55
2023-11-04T03:23:30.104Z,14.63
2023-11-04T03:28:31.866Z,16.23
2023-11-04T03:33:33.555Z,19.70
2023-11-04T03:38:35.523Z,15.20
2023-11-04T03:43:36.980Z,16.95
2023-11-04T03:48:38.738Z,17.02
2023-11-04T03:53:42.051Z,14.68
2023-11-04T03:58:44.437Z,15.45
2023-11-04T04:03:46.122Z,15.88
2023-11-04T04:08:47.971Z,17.38
2023-11-04T04:13:49.642Z,18.23
2023-11-04T04:18:51.740Z,15.50
2023-11-04T04:23:53.262Z,17.88
2023-11-04T04:28:54.680Z,18.92
2023-11-04T04:33:56.737Z,16.17
2023-11-04T04:38:58.413Z,17.63
2023-11-04T04:43:59.802Z,16.27
2023-11-04T04:49:01.361Z,18.08
2023-11-04T04:54:02.802Z,19.13
2023-11-04T04:59:04.277Z,18.90
2023-11-04T05:04:05.941Z,17.02
2023-11-04T05:09:07.607Z,18.38
2023-11-04T05:14:09.140Z,15.82
2023-11-04T05:19:11.040Z,18.17
2023-11-04T05:24:12.567Z,19.30
2023-11-04T05:29:14.054Z,18.73
2023-11-04T05:34:15.652Z,19.15
2023-11-04T05:39:17.175Z,18.38
2023-11-04T05:44:18.749Z,19.83
2023-11-04T05:49:20.380Z,18.35
2023-11-04T05:54:21.947Z,24.58
2023-11-04T05:59:23.642Z,23.73
2023-11-04T06:04:25.146Z,20.92
2023-11-04T06:09:27.046Z,20.15
2023-11-04T06:14:29.757Z,22.67
2023-11-04T06:19:31.242Z,19.63
2023-11-04T06:24:32.690Z,18.67
2023-11-04T06:29:34.210Z,20.08
2023-11-04T06:34:35.901Z,19.88
2023-11-04T06:39:38.821Z,18.15
2023-11-04T06:44:40.313Z,23.13
2023-11-04T06:49:41.706Z,23.67
2023-11-04T06:54:43.197Z,22.60
2023-11-04T06:59:44.683Z,18.27
2023-11-04T07:04:46.593Z,17.05
2023-11-04T07:09:48.116Z,15.40
2023-11-04T07:14:50.232Z,16.83
2023-11-04T07:19:54.004Z,17.92
2023-11-04T07:24:56.773Z,12.98
2023-11-04T07:29:58.282Z,16.50
2023-11-04T07:34:59.723Z,15.88
2023-11-04T07:40:01.220Z,16.05
2023-11-04T07:45:02.836Z,16.75
2023-11-04T07:50:04.482Z,15.75
2023-11-04T07:55:07.700Z,17.30
2023-11-04T08:00:10.218Z,16.85
2023-11-04T08:05:11.817Z,14.32
2023-11-04T08:10:13.507Z,14.05
2023-11-04T08:15:15.014Z,10.73
2023-11-04T08:20:16.504Z,10.82
2023-11-04T08:25:18.028Z,12.82
2023-11-04T08:30:19.460Z,12.73
2023-11-04T08:35:20.984Z,11.73
2023-11-04T08:40:22.549Z,13.05
2023-11-04T08:45:25.292Z,16.63
2023-11-04T08:50:30.229Z,13.40
2023-11-04T08:55:31.668Z,12.13
2023-11-04T09:00:33.222Z,13.32
2023-11-04T09:05:35.168Z,11.05
2023-11-04T09:10:36.957Z,14.35
2023-11-04T09:15:38.477Z,13.52
2023-11-04T09:20:40.010Z,13.43
2023-11-04T09:25:41.494Z,12.80
2023-11-04T09:30:44.080Z,10.73
2023-11-04T09:35:45.609Z,11.35
2023-11-04T09:40:47.097Z,18.65
2023-11-04T09:45:48.683Z,15.65
2023-11-04T09:50:52.864Z,9.32
2023-11-04T09:55:55.211Z,9.95
2023-11-04T10:00:57.692Z,13.15
2023-11-04T10:05:59.343Z,9.85
2023-11-04T10:11:00.740Z,13.65
2023-11-04T10:16:02.971Z,10.02
2023-11-04T10:21:04.696Z,13.57
2023-11-04T10:26:06.267Z,8.40
2023-11-04T10:31:08.486Z,8.75
2023-11-04T10:36:10.843Z,10.88
2023-11-04T10:41:13.524Z,7.47
2023-11-04T10:46:18.356Z,12.40
2023-11-04T10:51:25.393Z,9.13
2023-11-04T10:56:28.670Z,7.93
2023-11-04T11:01:30.519Z,10.82
2023-11-04T11:06:32.684Z,10.27
2023-11-04T11:11:40.145Z,11.75
2023-11-04T11:16:41.894Z,9.73
2023-11-04T11:21:50.688Z,8.57
2023-11-04T11:26:54.587Z,6.90
2023-11-04T11:32:06.576Z,9.27
2023-11-04T11:37:08.082Z,8.32
2023-11-04T11:42:09.587Z,9.35
2023-11-04T11:47:11.437Z,9.68
2023-11-04T11:52:12.983Z,7.57
2023-11-04T11:57:14.489Z,5.95
2023-11-04T12:02:15.963Z,7.90
2023-11-04T12:07:18.533Z,9.40
2023-11-04T12:12:20.104Z,9.18
2023-11-04T12:17:21.999Z,10.35
2023-11-04T12:22:27.125Z,11.65
2023-11-04T12:27:28.719Z,4.75
2023-11-04T12:32:30.231Z,6.72
2023-11-04T12:37:31.708Z,7.57
2023-11-04T12:42:33.594Z,7.20
2023-11-04T12:47:37.332Z,8.82
2023-11-04T12:52:39.206Z,7.78
2023-11-04T12:57:41.481Z,7.45
2023-11-04T13:02:43.334Z,8.23
2023-11-04T13:07:45.759Z,6.80
2023-11-04T13:12:47.427Z,8.32
2023-11-04T13:17:49.065Z,6.78
2023-11-04T13:22:50.834Z,8.35
2023-11-04T13:27:52.940Z,10.73
2023-11-04T13:32:54.738Z,5.22
2023-11-04T13:37:56.850Z,5.05
2023-11-04T13:42:58.387Z,3.33
2023-11-04T13:48:00.165Z,7.30
2023-11-04T13:53:01.938Z,5.70
2023-11-04T13:58:03.462Z,4.93
2023-11-04T14:03:05.152Z,5.10
2023-11-04T14:08:06.816Z,4.32
2023-11-04T14:13:08.598Z,5.65
2023-11-04T14:18:11.012Z,3.10
2023-11-04T14:23:12.788Z,4.15
2023-11-04T14:28:17.590Z,4.75
2023-11-04T14:33:21.434Z,7.28
2023-11-04T14:38:23.012Z,2.80
2023-11-04T14:43:24.837Z,5.75
2023-11-04T14:48:26.656Z,7.95
2023-11-04T14:53:28.672Z,7.68
2023-11-04T14:58:30.117Z,4.63
2023-11-04T15:03:31.633Z,4.68
2023-11-04T15:08:33.135Z,5.30
2023-11-04T15:13:34.668Z,5.32
2023-11-04T15:18:36.305Z,5.47
2023-11-04T15:23:37.830Z,6.13
2023-11-04T15:28:39.317Z,7.00
2023-11-04T15:33:41.056Z,4.97
2023-11-04T15:38:42.538Z,6.68
2023-11-04T15:43:43.985Z,6.45
2023-11-04T15:48:45.851Z,7.22
2023-11-04T15:53:47.858Z,7.75
2023-11-04T15:58:49.423Z,5.50
2023-11-04T16:03:52.528Z,5.18
2023-11-04T16:08:54.224Z,7.72
2023-11-04T16:13:55.672Z,6.35
2023-11-04T16:18:57.295Z,6.82
2023-11-04T16:23:58.812Z,8.75
2023-11-04T16:29:00.333Z,6.13
2023-11-04T16:34:01.973Z,8.18
2023-11-04T16:39:05.945Z,8.02
2023-11-04T16:44:10.081Z,7.57
2023-11-04T16:49:11.594Z,6.93
2023-11-04T16:54:13.564Z,7.20
2023-11-04T16:59:15.314Z,7.47
2023-11-04T17:04:17.160Z,7.05
2023-11-04T17:09:19.973Z,7.35
2023-11-04T17:14:21.508Z,7.10
2023-11-04T17:19:23.230Z,10.02
2023-11-04T17:24:26.293Z,7.45
2023-11-04T17:29:29.581Z,10.57
2023-11-04T17:34:31.136Z,7.28
2023-11-04T17:39:32.677Z,6.82
2023-11-04T17:44:34.328Z,8.00
2023-11-04T17:49:41.142Z,9.63
2023-11-04T17:54:42.722Z,6.78
2023-11-04T17:59:44.164Z,6.85
2023-11-04T18:04:45.876Z,8.68
2023-11-04T18:09:47.480Z,7.30
2023-11-04T18:14:49.050Z,10.18
2023-11-04T18:19:50.744Z,5.43
2023-11-04T18:24:52.321Z,6.32
2023-11-04T18:29:53.864Z,6.13
2023-11-04T18:34:55.387Z,6.65
2023-11-04T18:39:57.081Z,8.10
2023-11-04T18:44:58.629Z,8.27
2023-11-04T18:50:00.321Z,7.47
2023-11-04T18:55:02.116Z,6.20
2023-11-04T19:00:05.322Z,5.93
2023-11-04T19:05:09.478Z,5.93
2023-11-04T19:10:11.202Z,5.63
2023-11-04T19:15:12.701Z,7.53
2023-11-04T19:20:15.598Z,7.90
2023-11-04T19:25:18.035Z,8.30
2023-11-04T19:30:19.629Z,7.93
2023-11-04T19:35:21.217Z,7.40
2023-11-04T19:40:22.919Z,8.73
2023-11-04T19:45:24.486Z,7.93
2023-11-04T19:50:27.675Z,8.20
2023-11-04T19:55:29.221Z,5.82
2023-11-04T20:00:32.136Z,4.63
2023-11-04T20:05:33.779Z,6.40
2023-11-04T20:10:35.353Z,6.00
2023-11-04T20:15:36.805Z,7.82
2023-11-04T20:20:41.203Z,7.00
2023-11-04T20:25:42.721Z,9.48
2023-11-04T20:30:44.406Z,7.90
2023-11-04T20:35:46.259Z,6.93
2023-11-04T20:40:48.194Z,7.95
2023-11-04T20:45:49.695Z,8.05
2023-11-04T20:50:51.431Z,7.18
2023-11-04T20:55:53.395Z,8.18
2023-11-04T21:00:54.877Z,5.47
2023-11-04T21:05:56.474Z,8.40
2023-11-04T21:10:59.679Z,8.10
2023-11-04T21:16:01.328Z,10.18
2023-11-04T21:21:03.441Z,6.65
2023-11-04T21:26:05.444Z,8.20
2023-11-04T21:31:06.959Z,8.27
2023-11-04T21:36:08.595Z,6.38
2023-11-04T21:41:10.286Z,7.80
2023-11-04T21:46:11.781Z,7.72
2023-11-04T21:51:13.331Z,7.50
2023-11-04T21:56:15.707Z,8.02
2023-11-04T22:01:17.329Z,8.30
2023-11-04T22:06:18.952Z,10.80
2023-11-04T22:11:20.594Z,11.65
2023-11-04T22:16:22.141Z,10.52
2023-11-04T22:21:23.696Z,14.77
2023-11-04T22:26:26.716Z,11.05
2023-11-04T22:31:28.543Z,12.70
2023-11-04T22:36:30.165Z,9.80
2023-11-04T22:41:31.654Z,13.75
2023-11-04T22:46:33.286Z,11.30
2023-11-04T22:51:34.945Z,9.80
2023-11-04T22:56:36.483Z,10.23
2023-11-04T23:01:38.805Z,12.55
2023-11-04T23:06:40.274Z,9.35
2023-11-04T23:11:41.768Z,9.40
2023-11-04T23:16:44.661Z,14.60
2023-11-04T23:21:46.800Z,16.10
2023-11-04T23:26:48.308Z,14.77
2023-11-04T23:31:49.913Z,13.15
2023-11-04T23:36:51.456Z,11.30
2023-11-04T23:41:53.004Z,16.17
2023-11-04T23:46:54.584Z,16.90
2023-11-04T23:51:56.037Z,17.40
2023-11-04T23:56:57.670Z,14.05
